Terminal Aerodrome Forecast
Issued by NWS

Home | Current Version | Previous Version | Text Only | Print | Product List | Glossary On
Versions: 1 2 3 4 5 6 7 8 9 10 11 12 13 14 15 16 17 18 19 20 21 22 23 24 25 26 27 28 29 30
009
FTUS42 KJAX 181300 AAB
TAFVQQ
TAF AMD
KVQQ 181300Z 1813/1912 00000KT 6SM BR BKN250
      TEMPO 1813/1814 2SM BR
     FM181430 VRB03KT P6SM FEW015 BKN250
     FM181700 27008KT P6SM SCT045 BKN250
     FM190100 26003KT P6SM FEW045 BKN250=

USA.gov is the U.S. government's official web portal to all federal, state and local government web resources and services.